Terminal Aerodrome Forecast
Issued by NWS Springfield, MO

Home | Current Version | Previous Version | Text Only | Print | Product List | Glossary On
Versions: 1 2 3 4 5 6 7 8 9 10 11 12 13 14
420
FTUS43 KSGF 192320
TAFSGF
TAF
KSGF 192320Z 2000/2024 17010KT P6SM FEW060 SCT250
     FM200300 16015G21KT P6SM FEW250 WS015/21040KT
     FM201500 20018G25KT P6SM FEW250=

USA.gov is the U.S. government's official web portal to all federal, state and local government web resources and services.